To NAV CANADA Home Page Login to a new session Search on AWWS site Feedback and Comments Disclaimer Vers la page française équivalente Tips FAQ What's new on the site To the Forecasts and Observations / NOTAM section To "File a Flight Plan" website Publications and other links Update of the User's profile FIC Telephone Numbers My Weather Data Folder Route Weather Data Regional Weather Data Local Weather Data To the Forecasts and Observations / NOTAM section
Request Generated 05/25/2016 at 12:55:05 UTC . Weather information available at that time is displayed.

METAR/TAF

STEPHENVILLE/NL    

SPECI CYJT 251248Z 18006KT 12SM OVC025 15/15 A3000 RMK SC8 VCFG N
SLP162=
METAR CYJT 251200Z 00000KT 8SM -RA FEW003 OVC025 16/16 A3000 RMK
SF2SC6 SLP160 DENSITY ALT 100FT=
METAR CYJT 251100Z 33003KT 3SM -RA BR SCT004 OVC020 17/16 A3000 RMK
SF3SC5 /R17/ SLP161 DENSITY ALT 100FT=
SPECI CYJT 251040Z VRB03KT 3SM -RA BR SCT004 BKN020 OVC025CB 16/16
A3000 RMK SF3SC3CB2 SLP160 DENSITY ALT 100FT=
SPECI CYJT 251015Z VRB02KT 1 1/2SM TSRA BR SCT015 OVC025CB 16/15
A3000 RMK SF3CB5 LTGCTG SLP162=
SPECI CYJT 251011Z VRB02KT 3SM RA BR SCT014 OVC026 17/16 A3000 RMK
SC3SC5 SLP161 DENSITY ALT 100FT=
METAR CYJT 251000Z 11005KT 5SM -SHRA BR SCT014 OVC026 17/16 A3000 RMK
SC3SC5 PRESRR SLP160 DENSITY ALT 200FT=

TAF CYJT 251138Z 2512/2612 VRB03KT 3SM -SHRA BR SCT004 OVC020 TEMPO
2512/2514 P6SM -SHRA FEW006 OVC025
FM251400 25008KT P6SM FEW006 OVC025 TEMPO 2514/2519 5SM -SHRA BR
SCT006 OVC020 PROB30 2514/2517 3SM BR BKN006
FM251900 25007KT P6SM BKN020
FM260000 04005KT 5SM -SHRA BR OVC015
RMK NXT FCST BY 251800Z=
Your time UTC time
Weather data provided by Environment Canada and NAV CANADA